Pagina principale
METAR-TAF:

METAR-TAF

Aeroporti :

Milano, Italia

Aeroporto di Milano-Malpensa

latitudine: 45-37N, longitudine: 008-44E, altezza: 234 m

Osservazione

Il bollettino è stato emesso 43 minuti fa, alle 16:50 UTC
Vento 2 kt da direzioni variabili
Temperature 9°C
Umidità 71%
Pressione 1017 hPa
Visibilità 10 km o più
nessuna nube inferiore a 1500 m e nessun cumulonembo

METAR: LIMC 181650Z VRB02KT CAVOK 09/04 Q1017 NOSIG

Ora: 18:33 (17:33 UTC)

Previsione

Il bollettino è stato emesso 6 ore e 33 minuti fa, alle 11:00 UTC
Previsione valida dal 18 alle 12 UTC al 19 alle 18 UTC
Vento 5 kt da direzioni variabili
Visibilità 10 km o più
nessuna nube inferiore a 1500 m e nessun cumulonembo
Temporaneamente
dal 19 alle 00 UTC al 19 alle 08 UTC
Visibilità: 3000 m
banchi di nebbia

TAF: LIMC 181100Z 1812/1918 VRB05KT CAVOK TEMPO 1900/1908 3000 BCFG

Osservazioni e previsioni meteorologiche di più di 4000 aeroporti (messaggi METAR e TAF).

Le stazioni disponibili sono rappresentate dai dischi gialli e rossi sulla carta.

Puntare il mouse per vedere il nome della stazione.

Clicca sopra per visualizzare le osservazioni e previsioni meteorologiche.

Per cambiare la mappa : fare clic sui pulsanti verdi con una croce nera per ingrandire, il pulsante verde con un trattino per diminuire, o sulla freccia verde per le mappe adiacenti.


METAR-TAF: